Time;durP1;ratioP1;P1;durP2;ratioP2;P2;SDS_P1;SDS_P2;PMS_P1;PMS_P2;Temp;Humidity;BMP_temperature;BMP_pressure;BME280_temperature;BME280_humidity;BME280_pressure;Samples;Min_cycle;Max_cycle;Signal;HPM_P1;HPM_P2
2022/07/09 00:00:10;;;;;;;2.30;1.70;;;13.90;99.90;;;;;;4993731;28;20424;-77
2022/07/09 00:02:36;;;;;;;4.40;1.97;;;13.90;99.90;;;;;;5011945;28;20981;-77
2022/07/09 00:05:02;;;;;;;5.13;1.67;;;13.90;99.90;;;;;;4994514;28;20424;-77
2022/07/09 00:07:28;;;;;;;7.53;2.03;;;14.00;99.90;;;;;;5016529;28;20423;-77
2022/07/09 00:09:53;;;;;;;7.10;2.17;;;14.00;99.90;;;;;;5000208;28;20451;-77
2022/07/09 00:12:19;;;;;;;3.70;1.73;;;14.00;99.90;;;;;;5019489;28;20173;-77
2022/07/09 00:14:45;;;;;;;1.97;1.70;;;13.90;99.90;;;;;;5018638;28;20315;-77
2022/07/09 00:17:10;;;;;;;4.30;2.13;;;13.90;99.90;;;;;;5001613;28;20211;-77
2022/07/09 00:19:36;;;;;;;4.03;2.30;;;13.90;99.90;;;;;;4999767;28;20420;-76
2022/07/09 00:22:02;;;;;;;4.67;1.83;;;13.90;99.90;;;;;;5018821;28;20192;-77
2022/07/09 00:24:28;;;;;;;8.77;2.10;;;13.80;99.90;;;;;;5002975;28;20490;-77
2022/07/09 00:26:53;;;;;;;6.60;2.17;;;13.90;99.90;;;;;;5001322;28;20207;-77
2022/07/09 00:29:19;;;;;;;3.30;1.67;;;13.90;99.90;;;;;;5016625;28;20176;-76
2022/07/09 00:31:45;;;;;;;4.93;1.87;;;13.90;99.90;;;;;;5016352;28;20177;-76
2022/07/09 00:34:12;;;;;;;3.93;1.57;;;13.90;99.90;;;;;;5016453;28;20631;-77
2022/07/09 00:36:38;;;;;;;9.27;2.03;;;13.90;99.90;;;;;;4982384;28;20451;-76
2022/07/09 00:39:04;;;;;;;5.10;1.70;;;14.00;99.90;;;;;;4999508;28;20486;-76
2022/07/09 00:41:30;;;;;;;4.87;2.00;;;13.90;99.90;;;;;;5018277;28;20416;-77
2022/07/09 00:43:55;;;;;;;9.57;2.40;;;13.90;99.90;;;;;;5023468;28;20471;-77
2022/07/09 00:46:21;;;;;;;5.47;2.07;;;13.80;99.90;;;;;;5004839;28;20475;-77
2022/07/09 00:48:47;;;;;;;3.40;2.40;;;13.80;99.90;;;;;;5002748;28;20200;-76
2022/07/09 00:51:14;;;;;;;3.53;2.30;;;13.60;99.90;;;;;;4998163;28;20435;-76
2022/07/09 00:53:41;;;;;;;8.80;2.20;;;13.40;99.90;;;;;;4997708;28;20196;-77
2022/07/09 00:56:07;;;;;;;4.10;2.00;;;13.20;99.90;;;;;;4997864;28;20448;-76
2022/07/09 00:58:34;;;;;;;3.60;1.90;;;13.20;99.90;;;;;;4997671;28;20474;-76
2022/07/09 01:01:01;;;;;;;6.43;2.40;;;13.30;99.90;;;;;;5015046;28;20442;-75
2022/07/09 01:03:27;;;;;;;4.60;2.00;;;13.30;99.90;;;;;;5014844;28;20502;-75
2022/07/09 01:05:53;;;;;;;1.77;1.50;;;13.40;99.90;;;;;;4997017;28;20487;-75
2022/07/09 01:08:19;;;;;;;6.73;2.00;;;13.40;99.90;;;;;;5015021;28;21272;-76
2022/07/09 01:10:45;;;;;;;4.30;2.00;;;13.30;99.90;;;;;;5014992;28;20180;-76
2022/07/09 01:13:11;;;;;;;7.73;2.00;;;13.20;99.90;;;;;;4997335;28;20436;-76
2022/07/09 01:15:37;;;;;;;5.80;2.10;;;13.30;99.90;;;;;;4996961;28;21006;-76
2022/07/09 01:18:03;;;;;;;4.27;2.30;;;13.30;99.90;;;;;;4995302;28;20196;-76
2022/07/09 01:20:29;;;;;;;3.70;1.70;;;13.30;99.90;;;;;;4977484;28;20523;-76
2022/07/09 01:22:56;;;;;;;3.50;1.93;;;13.30;99.90;;;;;;4993980;28;20555;-74
2022/07/09 01:25:37;;;;;;;4.40;1.70;;;13.30;99.90;;;;;;5012854;28;20904;-76
2022/07/09 01:28:05;;;;;;;4.33;2.03;;;13.40;99.90;;;;;;5011647;28;20416;-75
2022/07/09 01:30:33;;;;;;;1.50;1.40;;;13.40;99.90;;;;;;5011471;28;20420;-75
2022/07/09 01:33:00;;;;;;;5.87;2.10;;;13.30;99.90;;;;;;5011406;28;20909;-75
2022/07/09 01:35:26;;;;;;;3.43;1.70;;;13.30;99.90;;;;;;5011270;28;20490;-75
2022/07/09 01:37:52;;;;;;;6.90;2.50;;;13.30;99.90;;;;;;5011232;28;20424;-75
2022/07/09 01:40:19;;;;;;;5.40;2.40;;;13.20;99.90;;;;;;5011257;28;20451;-75
2022/07/09 01:42:45;;;;;;;5.10;2.17;;;13.10;99.90;;;;;;4993890;28;20461;-75
2022/07/09 01:45:11;;;;;;;4.80;2.20;;;13.10;99.90;;;;;;5011115;28;20468;-76
2022/07/09 01:47:36;;;;;;;5.10;1.97;;;12.90;99.90;;;;;;4993324;28;20431;-76
2022/07/09 01:50:02;;;;;;;4.30;2.10;;;12.90;99.90;;;;;;5011200;28;20239;-75
2022/07/09 01:52:29;;;;;;;4.93;1.83;;;12.90;99.90;;;;;;5011231;28;20189;-75
2022/07/09 01:54:55;;;;;;;2.93;1.97;;;12.90;99.90;;;;;;5011679;28;20454;-77
2022/07/09 01:57:20;;;;;;;5.20;2.20;;;12.90;99.90;;;;;;4993878;28;20427;-77
2022/07/09 01:59:46;;;;;;;9.60;1.77;;;12.90;99.90;;;;;;4977775;28;20208;-77
2022/07/09 02:02:12;;;;;;;4.13;1.80;;;13.10;99.90;;;;;;4994027;28;20209;-77
2022/07/09 02:04:38;;;;;;;3.43;2.00;;;12.90;99.90;;;;;;4993726;28;20281;-78
2022/07/09 02:07:04;;;;;;;9.63;2.20;;;12.90;99.90;;;;;;5011697;28;20232;-77
2022/07/09 02:09:29;;;;;;;2.93;1.83;;;12.90;99.90;;;;;;4977257;28;20284;-76
2022/07/09 02:11:55;;;;;;;5.13;2.10;;;12.80;99.90;;;;;;5011127;28;20514;-77
2022/07/09 02:14:21;;;;;;;8.20;2.40;;;12.80;99.90;;;;;;4982039;28;20267;-77
2022/07/09 02:16:47;;;;;;;8.60;1.83;;;12.80;99.90;;;;;;5019345;28;20447;-78
2022/07/09 02:19:13;;;;;;;5.00;1.93;;;12.80;99.90;;;;;;5018995;28;20974;-79
2022/07/09 02:21:39;;;;;;;5.00;1.90;;;12.80;99.90;;;;;;5017770;28;20467;-78
2022/07/09 02:24:06;;;;;;;5.67;2.20;;;12.80;99.90;;;;;;4999418;28;20474;-78
2022/07/09 02:26:32;;;;;;;6.63;2.00;;;12.80;99.90;;;;;;5016650;28;20901;-78
2022/07/09 02:28:58;;;;;;;6.17;2.30;;;12.70;99.90;;;;;;4999969;28;20427;-78
2022/07/09 02:31:25;;;;;;;4.30;2.40;;;12.80;99.90;;;;;;5016810;28;20419;-78
2022/07/09 02:33:51;;;;;;;5.10;1.70;;;12.60;99.90;;;;;;4997156;28;20428;-78
2022/07/09 02:36:17;;;;;;;4.50;1.90;;;12.60;99.90;;;;;;5016545;28;20455;-78
2022/07/09 02:38:42;;;;;;;6.77;2.67;;;12.60;99.90;;;;;;5017378;28;20869;-79
2022/07/09 02:41:08;;;;;;;6.47;2.73;;;12.50;99.90;;;;;;5018044;28;20192;-78
2022/07/09 02:43:35;;;;;;;5.80;2.07;;;12.50;99.90;;;;;;5000393;28;20256;-78
2022/07/09 02:46:01;;;;;;;4.10;1.80;;;12.50;99.90;;;;;;5017498;28;20451;-77
2022/07/09 02:48:26;;;;;;;3.73;2.47;;;12.50;99.90;;;;;;4996371;28;20651;-76
2022/07/09 02:50:53;;;;;;;6.20;1.93;;;12.60;99.90;;;;;;5010755;28;20463;-77
2022/07/09 02:53:19;;;;;;;6.67;2.50;;;12.50;99.90;;;;;;5011202;28;20677;-76
2022/07/09 02:55:45;;;;;;;6.73;1.87;;;12.50;99.90;;;;;;5010677;28;20448;-76
2022/07/09 02:58:12;;;;;;;11.57;3.07;;;12.50;99.90;;;;;;5010909;28;20541;-76
2022/07/09 03:00:42;;;;;;;3.50;1.90;;;12.50;99.90;;;;;;4976250;28;20468;-76
2022/07/09 03:03:08;;;;;;;2.50;1.87;;;12.40;99.90;;;;;;5010466;28;20557;-77
2022/07/09 03:05:34;;;;;;;2.40;2.10;;;12.40;99.90;;;;;;5010543;28;20448;-77
2022/07/09 03:08:01;;;;;;;7.67;2.83;;;12.40;99.90;;;;;;4995070;28;20539;-78
2022/07/09 03:10:28;;;;;;;8.50;2.40;;;12.40;99.90;;;;;;4979336;28;20489;-78
2022/07/09 03:12:53;;;;;;;6.63;2.30;;;12.40;99.90;;;;;;5011886;28;20423;-78
2022/07/09 03:15:19;;;;;;;6.53;2.23;;;12.30;99.90;;;;;;4994319;28;20457;-78
2022/07/09 03:17:46;;;;;;;3.13;2.00;;;12.30;99.90;;;;;;5012528;28;20467;-78
2022/07/09 03:20:12;;;;;;;3.27;2.03;;;12.30;99.90;;;;;;4977752;28;20189;-78
2022/07/09 03:22:38;;;;;;;3.90;1.90;;;12.20;99.90;;;;;;4977911;28;20773;-78
2022/07/09 03:25:05;;;;;;;5.73;1.90;;;12.50;99.90;;;;;;5011010;28;20855;-78
2022/07/09 03:27:31;;;;;;;9.23;1.90;;;12.30;99.90;;;;;;4976500;28;20550;-77
2022/07/09 03:29:56;;;;;;;2.93;2.00;;;12.30;99.90;;;;;;5010298;28;21103;-77
2022/07/09 03:32:22;;;;;;;2.33;2.13;;;12.20;99.90;;;;;;4992454;28;20455;-75
2022/07/09 03:34:48;;;;;;;4.03;2.00;;;12.20;99.90;;;;;;5009442;28;20189;-76
2022/07/09 03:37:14;;;;;;;3.60;2.30;;;12.20;99.90;;;;;;4991767;28;20619;-75
2022/07/09 03:39:39;;;;;;;6.20;2.37;;;12.20;99.90;;;;;;5009251;28;20463;-76
2022/07/09 03:42:06;;;;;;;2.53;2.17;;;12.20;99.90;;;;;;5008769;28;20958;-76
2022/07/09 03:44:33;;;;;;;10.40;2.50;;;12.20;99.90;;;;;;4991824;28;20216;-76
2022/07/09 03:46:59;;;;;;;4.80;2.23;;;12.20;99.90;;;;;;5009519;28;20983;-76
2022/07/09 03:49:25;;;;;;;8.20;2.53;;;12.10;99.90;;;;;;5009806;28;20420;-75
2022/07/09 03:51:51;;;;;;;8.53;2.77;;;12.00;99.90;;;;;;4992258;28;20489;-75
2022/07/09 03:54:17;;;;;;;3.67;2.43;;;12.00;99.90;;;;;;5009562;28;20915;-75
2022/07/09 03:56:43;;;;;;;6.80;1.90;;;12.00;99.90;;;;;;4991723;28;20220;-75
2022/07/09 03:59:08;;;;;;;7.40;2.03;;;11.90;99.90;;;;;;4975256;28;20218;-75
2022/07/09 04:01:34;;;;;;;6.67;2.53;;;12.00;99.90;;;;;;5009402;28;20196;-77
2022/07/09 04:03:59;;;;;;;3.10;2.37;;;11.70;99.90;;;;;;5009686;28;20215;-77
2022/07/09 04:06:25;;;;;;;3.97;2.17;;;11.60;99.90;;;;;;4991898;28;20583;-77
2022/07/09 04:08:51;;;;;;;3.97;2.60;;;11.60;99.90;;;;;;4991374;28;20211;-76
2022/07/09 04:11:16;;;;;;;5.47;1.80;;;11.70;99.90;;;;;;5008772;28;20726;-76
2022/07/09 04:13:42;;;;;;;7.53;2.33;;;11.80;99.90;;;;;;4975791;28;20198;-77
2022/07/09 04:16:08;;;;;;;3.90;2.30;;;11.90;99.90;;;;;;4991348;28;20207;-77
2022/07/09 04:18:35;;;;;;;3.57;1.70;;;12.00;99.90;;;;;;5011925;28;20510;-78
2022/07/09 04:21:01;;;;;;;8.10;2.33;;;12.10;99.90;;;;;;4992759;28;20946;-76
2022/07/09 04:23:27;;;;;;;6.23;2.23;;;12.30;99.90;;;;;;4976284;28;20895;-76
2022/07/09 04:25:53;;;;;;;3.27;1.73;;;12.50;99.90;;;;;;5009802;28;20200;-79
2022/07/09 04:28:19;;;;;;;4.40;1.93;;;12.70;99.90;;;;;;5009501;28;20415;-76
2022/07/09 04:30:46;;;;;;;10.23;2.03;;;12.80;99.90;;;;;;5009948;28;20434;-76
2022/07/09 04:33:12;;;;;;;6.30;2.20;;;12.90;99.90;;;;;;4975664;28;20437;-75
2022/07/09 04:35:38;;;;;;;5.27;2.53;;;12.90;99.90;;;;;;4991404;28;20512;-76
2022/07/09 04:38:03;;;;;;;8.57;2.60;;;12.80;99.90;;;;;;4991358;28;20277;-74
2022/07/09 04:40:29;;;;;;;3.03;1.93;;;12.80;99.90;;;;;;4991233;28;20490;-77
2022/07/09 04:42:55;;;;;;;7.00;1.97;;;12.90;99.90;;;;;;4991758;28;20447;-77
2022/07/09 04:45:21;;;;;;;4.00;2.73;;;12.90;99.90;;;;;;4991403;28;20881;-75
2022/07/09 04:47:46;;;;;;;4.47;2.40;;;12.90;99.90;;;;;;5010322;28;20196;-76
2022/07/09 04:50:12;;;;;;;2.80;2.20;;;13.00;99.90;;;;;;5009384;28;20193;-76
2022/07/09 04:52:38;;;;;;;6.30;2.33;;;13.00;99.90;;;;;;4990773;28;20224;-76
2022/07/09 04:55:05;;;;;;;10.17;2.50;;;13.10;99.90;;;;;;4993798;28;20427;-76
2022/07/09 04:57:31;;;;;;;3.60;2.20;;;13.10;99.90;;;;;;4994810;28;20473;-76
2022/07/09 05:00:01;;;;;;;3.83;2.00;;;13.30;99.90;;;;;;4994671;28;20427;-75
2022/07/09 05:02:27;;;;;;;4.97;2.43;;;13.30;99.90;;;;;;5012446;28;20195;-76
2022/07/09 05:04:52;;;;;;;7.70;3.00;;;13.40;99.90;;;;;;5013285;28;20479;-78
2022/07/09 05:07:18;;;;;;;4.03;2.37;;;13.40;99.90;;;;;;4995494;28;20423;-78
2022/07/09 05:09:44;;;;;;;5.00;2.50;;;13.50;99.90;;;;;;4995177;28;20678;-75
2022/07/09 05:12:10;;;;;;;6.50;2.23;;;13.60;99.90;;;;;;5011947;28;20283;-75
2022/07/09 05:14:37;;;;;;;5.20;2.30;;;13.70;99.90;;;;;;5011935;28;20182;-74
2022/07/09 05:17:03;;;;;;;5.67;2.17;;;13.70;99.90;;;;;;4993834;28;20454;-74
2022/07/09 05:19:29;;;;;;;7.23;2.10;;;13.70;99.90;;;;;;4993786;28;20563;-75
2022/07/09 05:21:55;;;;;;;6.90;2.23;;;13.80;99.90;;;;;;4977644;28;20530;-74
2022/07/09 05:24:20;;;;;;;4.23;2.53;;;13.90;99.90;;;;;;5011586;28;20294;-74
2022/07/09 05:26:46;;;;;;;8.07;2.20;;;14.10;99.90;;;;;;5011668;28;20205;-73
2022/07/09 05:29:12;;;;;;;7.37;2.60;;;14.20;99.90;;;;;;4977437;28;20193;-74
2022/07/09 05:31:38;;;;;;;6.80;2.50;;;14.30;99.90;;;;;;4994005;28;20675;-74
2022/07/09 05:34:04;;;;;;;4.97;2.40;;;14.30;99.90;;;;;;5011741;28;20499;-74
2022/07/09 05:36:30;;;;;;;5.80;2.60;;;14.50;99.90;;;;;;5012243;28;20224;-76
2022/07/09 05:38:57;;;;;;;8.40;2.17;;;14.50;99.90;;;;;;4979128;28;20444;-75
2022/07/09 05:41:23;;;;;;;7.40;2.50;;;14.80;99.90;;;;;;4994499;28;21012;-73
2022/07/09 05:43:48;;;;;;;4.67;1.97;;;14.90;99.90;;;;;;5012362;28;20608;-73
2022/07/09 05:46:14;;;;;;;6.17;2.00;;;15.10;99.90;;;;;;5012106;28;20805;-73
2022/07/09 05:48:40;;;;;;;4.47;1.77;;;15.20;99.90;;;;;;4978013;28;20246;-73
2022/07/09 05:51:05;;;;;;;4.00;2.07;;;15.30;99.90;;;;;;5012073;28;20301;-73
2022/07/09 05:53:31;;;;;;;11.17;2.73;;;15.40;99.90;;;;;;5012093;28;20729;-73
2022/07/09 05:55:57;;;;;;;6.90;2.20;;;15.70;99.90;;;;;;5011626;28;20585;-73
2022/07/09 05:58:22;;;;;;;5.40;2.17;;;15.90;99.90;;;;;;5011626;28;20181;-75
2022/07/09 06:00:48;;;;;;;8.10;2.43;;;16.10;99.90;;;;;;4993906;28;20200;-75
2022/07/09 06:03:13;;;;;;;5.27;2.47;;;16.30;99.90;;;;;;4993561;28;20216;-75
2022/07/09 06:05:39;;;;;;;7.40;2.43;;;16.50;99.90;;;;;;5010955;28;20543;-75
2022/07/09 06:08:05;;;;;;;4.87;1.93;;;16.60;99.90;;;;;;5011660;28;20178;-75
2022/07/09 06:10:31;;;;;;;6.50;2.53;;;16.80;99.90;;;;;;5011727;28;20174;-75
2022/07/09 06:12:56;;;;;;;3.60;2.00;;;17.00;99.90;;;;;;4993848;28;20206;-75
2022/07/09 06:15:22;;;;;;;9.70;2.60;;;17.10;99.90;;;;;;5011309;28;20670;-75
2022/07/09 06:17:50;;;;;;;5.80;2.30;;;17.10;99.90;;;;;;5011450;28;20220;-75
2022/07/09 06:20:16;;;;;;;5.03;1.93;;;17.20;99.90;;;;;;5011389;28;20604;-75
2022/07/09 06:22:42;;;;;;;7.20;2.20;;;17.20;99.90;;;;;;5011431;28;20417;-75
2022/07/09 06:25:08;;;;;;;11.20;2.37;;;17.30;99.90;;;;;;5011091;28;20523;-75
2022/07/09 06:27:34;;;;;;;4.37;2.13;;;17.30;99.90;;;;;;5011219;28;20417;-75
2022/07/09 06:30:00;;;;;;;6.63;2.53;;;17.30;99.90;;;;;;4993310;28;20425;-75
2022/07/09 06:32:26;;;;;;;6.23;2.13;;;17.40;99.90;;;;;;4993566;28;20425;-76
2022/07/09 06:34:52;;;;;;;3.50;2.33;;;17.50;99.90;;;;;;5011069;28;20227;-75
2022/07/09 06:37:17;;;;;;;4.53;2.10;;;17.50;99.90;;;;;;5010921;28;20193;-75
2022/07/09 06:39:46;;;;;;;3.10;1.90;;;17.50;99.90;;;;;;5010816;28;20478;-75
2022/07/09 06:42:13;;;;;;;3.90;2.27;;;17.70;99.90;;;;;;4993031;28;20774;-76
2022/07/09 06:44:39;;;;;;;5.63;1.93;;;17.80;99.90;;;;;;4993105;28;21004;-75
2022/07/09 06:47:05;;;;;;;3.00;1.80;;;17.90;99.90;;;;;;5010996;28;20809;-75
2022/07/09 06:49:31;;;;;;;3.80;1.90;;;18.20;99.90;;;;;;4992972;28;20434;-75
2022/07/09 06:51:57;;;;;;;3.03;1.50;;;18.30;99.90;;;;;;4993241;28;20789;-75
2022/07/09 06:54:23;;;;;;;4.07;2.17;;;18.40;99.90;;;;;;5010416;28;20422;-76
2022/07/09 06:56:48;;;;;;;6.13;1.73;;;18.40;99.90;;;;;;5010432;28;20599;-75
2022/07/09 06:59:14;;;;;;;3.60;2.00;;;18.40;99.90;;;;;;5010645;28;20421;-75
2022/07/09 07:01:40;;;;;;;4.73;2.00;;;18.60;99.90;;;;;;5010828;28;20188;-75
2022/07/09 07:04:06;;;;;;;5.23;2.33;;;18.70;99.90;;;;;;4993053;28;20477;-75
2022/07/09 07:06:32;;;;;;;3.97;1.90;;;18.80;99.90;;;;;;5010402;28;20230;-76
2022/07/09 07:08:58;;;;;;;3.40;2.30;;;19.00;99.90;;;;;;5010358;28;20459;-76
2022/07/09 07:11:24;;;;;;;7.40;2.20;;;19.20;99.90;;;;;;5010342;28;20313;-76
2022/07/09 07:13:50;;;;;;;6.60;2.07;;;19.30;99.90;;;;;;4992769;28;20467;-75
2022/07/09 07:16:16;;;;;;;4.40;2.00;;;19.40;99.90;;;;;;5009118;28;20485;-75
2022/07/09 07:18:41;;;;;;;5.60;1.83;;;19.50;99.90;;;;;;5010334;28;20215;-75
2022/07/09 07:21:07;;;;;;;6.20;1.67;;;19.40;99.90;;;;;;5010393;28;20197;-75
2022/07/09 07:23:32;;;;;;;6.17;2.73;;;19.50;99.90;;;;;;4992633;28;20212;-75
2022/07/09 07:25:59;;;;;;;2.33;2.13;;;19.60;99.90;;;;;;5010339;28;20741;-75
2022/07/09 07:28:25;;;;;;;5.40;2.00;;;19.40;99.90;;;;;;5010617;28;20208;-75
2022/07/09 07:30:51;;;;;;;7.50;2.27;;;19.40;99.90;;;;;;4992787;28;20443;-75
2022/07/09 07:33:17;;;;;;;11.47;1.80;;;19.40;99.90;;;;;;5010118;28;20214;-75
2022/07/09 07:35:44;;;;;;;4.30;1.70;;;19.50;99.90;;;;;;4992682;28;20208;-75
2022/07/09 07:38:09;;;;;;;4.27;1.83;;;19.70;99.90;;;;;;5010329;28;20559;-75
2022/07/09 07:40:36;;;;;;;6.87;1.83;;;19.70;99.90;;;;;;4992529;28;20452;-73
2022/07/09 07:43:05;;;;;;;3.93;2.30;;;19.80;99.90;;;;;;4977578;28;20207;-75
2022/07/09 07:45:31;;;;;;;6.03;2.03;;;20.10;99.90;;;;;;4993167;28;20451;-75
2022/07/09 07:47:57;;;;;;;5.30;1.90;;;20.10;99.90;;;;;;5010958;28;20882;-75
2022/07/09 07:50:23;;;;;;;6.87;2.27;;;20.20;99.90;;;;;;5010037;28;20417;-75
2022/07/09 07:52:49;;;;;;;7.50;2.10;;;20.30;99.90;;;;;;4992678;28;20185;-74
2022/07/09 07:55:15;;;;;;;4.60;1.80;;;20.40;99.90;;;;;;4976898;28;20445;-73
2022/07/09 07:57:41;;;;;;;2.93;1.60;;;20.50;99.90;;;;;;5010051;28;20438;-74
2022/07/09 08:00:07;;;;;;;3.90;2.00;;;20.60;99.90;;;;;;5009933;28;20236;-75
2022/07/09 08:02:34;;;;;;;8.53;2.00;;;20.80;99.90;;;;;;5009624;28;20195;-75
2022/07/09 08:05:00;;;;;;;4.97;1.60;;;20.80;99.50;;;;;;4991401;28;20498;-75
2022/07/09 08:07:26;;;;;;;4.97;1.50;;;20.60;99.90;;;;;;5009433;28;20503;-73
2022/07/09 08:09:51;;;;;;;4.33;1.80;;;20.70;99.90;;;;;;5009382;28;20454;-74
2022/07/09 08:12:17;;;;;;;3.37;1.50;;;20.90;99.70;;;;;;5009315;28;20235;-73
2022/07/09 08:14:43;;;;;;;6.43;2.07;;;21.10;99.10;;;;;;5009142;28;20614;-74
2022/07/09 08:17:09;;;;;;;9.27;1.70;;;21.40;99.90;;;;;;4991413;28;20201;-74
2022/07/09 08:19:34;;;;;;;2.70;1.73;;;21.30;99.90;;;;;;5009326;28;20423;-74
2022/07/09 08:22:00;;;;;;;3.80;1.70;;;21.60;99.80;;;;;;5009222;28;20187;-75
2022/07/09 08:24:26;;;;;;;3.57;1.90;;;21.70;99.90;;;;;;5008910;28;20220;-75
2022/07/09 08:26:53;;;;;;;6.83;1.70;;;21.90;99.80;;;;;;5008895;28;20551;-75
2022/07/09 08:29:18;;;;;;;4.40;1.23;;;21.90;99.00;;;;;;5012670;28;20415;-74
2022/07/09 08:31:44;;;;;;;3.93;1.83;;;21.90;99.60;;;;;;4995370;28;20921;-74
2022/07/09 08:34:10;;;;;;;8.23;1.57;;;22.00;99.90;;;;;;5013096;28;20194;-76
2022/07/09 08:36:35;;;;;;;7.33;1.90;;;22.00;99.90;;;;;;4995192;28;20206;-76
2022/07/09 08:39:01;;;;;;;3.13;1.80;;;22.10;98.50;;;;;;5012634;28;20666;-76
2022/07/09 08:41:27;;;;;;;4.10;1.47;;;22.10;98.30;;;;;;4995183;28;20185;-76
2022/07/09 08:43:53;;;;;;;4.90;1.57;;;22.20;99.20;;;;;;4994364;28;20989;-76
2022/07/09 08:46:19;;;;;;;3.17;2.00;;;22.30;97.40;;;;;;5011667;28;20256;-76
2022/07/09 08:48:45;;;;;;;6.17;1.80;;;22.40;98.00;;;;;;4994263;28;20499;-76
2022/07/09 08:51:13;;;;;;;3.10;1.50;;;22.50;97.10;;;;;;5011944;28;20917;-76
2022/07/09 08:53:41;;;;;;;5.23;1.70;;;22.70;97.40;;;;;;5011745;28;20448;-76
2022/07/09 08:56:08;;;;;;;5.23;1.87;;;22.80;95.80;;;;;;5011481;28;20432;-76
2022/07/09 08:58:34;;;;;;;4.37;2.00;;;22.90;97.00;;;;;;5011542;28;20457;-74
2022/07/09 09:01:00;;;;;;;4.83;1.83;;;22.90;95.70;;;;;;5011389;28;20429;-74
2022/07/09 09:03:26;;;;;;;6.97;1.87;;;23.10;93.70;;;;;;4993621;28;20472;-74
2022/07/09 09:06:02;;;;;;;5.10;1.63;;;23.10;94.50;;;;;;5011272;28;20237;-74
2022/07/09 09:08:32;;;;;;;4.63;1.60;;;23.00;93.60;;;;;;5011439;28;20190;-74
2022/07/09 09:10:58;;;;;;;4.83;1.80;;;23.30;94.40;;;;;;5011723;28;21241;-74
2022/07/09 09:13:23;;;;;;;4.17;1.00;;;23.50;93.10;;;;;;5011578;28;20525;-74
2022/07/09 09:15:49;;;;;;;3.57;1.60;;;23.80;92.80;;;;;;5011430;28;20215;-74
2022/07/09 09:18:15;;;;;;;4.07;1.63;;;23.80;91.70;;;;;;4994322;28;20236;-74
2022/07/09 09:20:45;;;;;;;5.00;1.70;;;24.10;92.70;;;;;;5011293;28;20190;-74
2022/07/09 09:23:16;;;;;;;6.10;2.27;;;24.10;90.70;;;;;;4993628;28;20712;-74
2022/07/09 09:25:41;;;;;;;2.87;1.33;;;24.30;92.70;;;;;;5011446;28;20444;-75
2022/07/09 09:28:08;;;;;;;3.63;1.40;;;24.40;90.00;;;;;;5011365;28;20425;-74
2022/07/09 09:30:42;;;;;;;6.23;1.80;;;24.50;90.60;;;;;;5011865;28;20269;-74
2022/07/09 09:33:08;;;;;;;3.13;1.00;;;24.50;89.10;;;;;;5011646;28;20506;-74
2022/07/09 09:35:35;;;;;;;5.53;1.53;;;24.90;87.80;;;;;;5011569;28;20442;-74
2022/07/09 09:38:01;;;;;;;6.60;1.43;;;25.00;86.10;;;;;;5011136;28;20453;-74
2022/07/09 09:40:27;;;;;;;4.73;1.20;;;25.30;88.10;;;;;;5010740;28;20445;-74
2022/07/09 09:42:53;;;;;;;3.00;1.10;;;25.50;85.30;;;;;;4993809;28;20812;-74
2022/07/09 09:45:19;;;;;;;2.87;1.10;;;25.40;82.10;;;;;;5011943;28;20898;-74
2022/07/09 09:47:50;;;;;;;9.60;2.03;;;25.60;82.40;;;;;;4993551;28;20498;-74
2022/07/09 09:50:21;;;;;;;4.57;1.40;;;25.90;85.80;;;;;;5011469;28;20519;-74
2022/07/09 09:52:48;;;;;;;4.13;1.10;;;26.10;85.10;;;;;;5011763;28;20968;-74
2022/07/09 09:55:15;;;;;;;3.20;1.27;;;26.40;82.60;;;;;;5011854;28;20446;-74
2022/07/09 09:57:41;;;;;;;5.90;1.40;;;26.60;84.00;;;;;;5012373;28;20427;-74
2022/07/09 10:00:09;;;;;;;3.00;1.20;;;26.70;80.10;;;;;;5012354;28;20793;-74
2022/07/09 10:02:35;;;;;;;2.20;1.10;;;26.50;80.00;;;;;;5014337;28;20177;-74
2022/07/09 10:05:02;;;;;;;1.70;1.10;;;26.90;79.60;;;;;;5012326;28;20474;-74
2022/07/09 10:07:29;;;;;;;4.27;1.20;;;27.10;82.10;;;;;;5011358;28;20447;-74
2022/07/09 10:09:59;;;;;;;3.97;1.10;;;27.30;79.00;;;;;;5011121;28;20412;-75
2022/07/09 10:12:30;;;;;;;5.13;1.50;;;27.40;75.60;;;;;;5012094;28;20540;-75
2022/07/09 10:14:56;;;;;;;1.60;1.10;;;27.60;75.50;;;;;;5011958;28;20474;-74
2022/07/09 10:17:24;;;;;;;2.00;1.27;;;27.70;75.70;;;;;;5011948;28;20412;-74
2022/07/09 10:19:52;;;;;;;2.40;1.20;;;27.70;74.70;;;;;;4993951;28;20434;-74
2022/07/09 10:22:17;;;;;;;2.70;0.87;;;27.80;73.70;;;;;;5012420;28;21003;-74
2022/07/09 10:24:44;;;;;;;2.60;1.43;;;28.00;73.10;;;;;;5014169;28;20479;-74
2022/07/09 10:27:11;;;;;;;9.90;2.67;;;28.00;76.60;;;;;;4995725;28;20578;-74
2022/07/09 10:29:56;;;;;;;5.73;5.07;;;28.20;72.30;;;;;;5013373;28;20475;-74
2022/07/09 10:32:24;;;;;;;5.03;3.50;;;28.10;68.40;;;;;;5012899;28;20416;-74
2022/07/09 10:34:59;;;;;;;2.37;2.00;;;28.10;68.40;;;;;;5013180;28;20419;-73
2022/07/09 10:37:41;;;;;;;3.50;1.00;;;28.10;66.40;;;;;;5010831;28;20995;-74
2022/07/09 10:40:10;;;;;;;5.23;1.50;;;28.00;66.10;;;;;;5009936;28;20526;-74
2022/07/09 10:42:36;;;;;;;3.77;1.23;;;28.20;70.40;;;;;;5010363;28;20420;-74
2022/07/09 10:45:04;;;;;;;4.47;1.87;;;28.20;69.50;;;;;;5010218;28;20464;-74
2022/07/09 10:47:38;;;;;;;2.33;0.97;;;28.30;69.40;;;;;;5009773;28;20508;-74
2022/07/09 10:50:05;;;;;;;1.40;0.83;;;28.40;68.20;;;;;;4976084;28;20557;-73
2022/07/09 10:52:31;;;;;;;4.80;1.40;;;28.40;66.90;;;;;;5009805;28;20416;-73
2022/07/09 10:54:56;;;;;;;2.53;1.10;;;28.50;66.70;;;;;;5009477;28;20422;-74
2022/07/09 10:57:22;;;;;;;1.97;0.80;;;28.90;68.70;;;;;;5009504;28;20424;-73
2022/07/09 10:59:48;;;;;;;2.10;0.80;;;29.00;68.30;;;;;;5009371;28;20268;-73
2022/07/09 11:02:18;;;;;;;3.87;1.00;;;29.00;67.90;;;;;;5009293;28;20280;-73
2022/07/09 11:04:51;;;;;;;3.77;0.97;;;28.90;67.40;;;;;;5009376;28;20213;-74
2022/07/09 11:07:21;;;;;;;1.90;0.80;;;28.50;64.30;;;;;;4991914;28;20424;-73
2022/07/09 11:09:48;;;;;;;2.30;0.60;;;28.30;65.10;;;;;;5009006;28;20893;-73
2022/07/09 11:12:17;;;;;;;2.27;1.10;;;28.60;65.30;;;;;;5008996;28;20420;-73
2022/07/09 11:14:48;;;;;;;2.60;1.27;;;28.80;64.40;;;;;;5009126;28;20416;-72
2022/07/09 11:17:18;;;;;;;3.60;1.17;;;29.00;64.70;;;;;;5009249;28;20443;-73
2022/07/09 11:19:45;;;;;;;3.23;0.70;;;29.00;65.90;;;;;;5009291;28;20538;-74
2022/07/09 11:22:11;;;;;;;3.97;0.70;;;29.20;61.50;;;;;;4991173;28;20439;-74
2022/07/09 11:24:37;;;;;;;2.50;0.93;;;29.20;60.60;;;;;;4974923;28;20850;-74
2022/07/09 11:27:04;;;;;;;1.37;0.80;;;29.10;59.90;;;;;;5008694;28;20558;-74
2022/07/09 11:29:30;;;;;;;2.17;0.80;;;29.30;60.90;;;;;;4990799;28;20441;-74
2022/07/09 11:32:01;;;;;;;1.30;0.60;;;29.20;60.70;;;;;;5009478;28;20427;-75
2022/07/09 11:34:28;;;;;;;1.70;0.90;;;29.20;61.80;;;;;;4992690;28;20424;-74
2022/07/09 11:36:55;;;;;;;2.70;0.80;;;29.50;60.40;;;;;;4991398;28;20448;-74
2022/07/09 11:39:26;;;;;;;2.03;0.63;;;29.40;61.10;;;;;;5008879;28;20466;-74
2022/07/09 11:41:53;;;;;;;2.23;0.97;;;29.40;59.50;;;;;;5009248;28;20416;-74
2022/07/09 11:44:24;;;;;;;2.30;0.87;;;29.50;57.70;;;;;;4991738;28;20998;-74
2022/07/09 11:47:10;;;;;;;2.33;0.80;;;29.50;57.20;;;;;;5011202;28;20442;-74
2022/07/09 11:49:43;;;;;;;2.43;1.10;;;29.60;54.70;;;;;;5009337;28;20444;-74
2022/07/09 11:52:20;;;;;;;1.43;0.97;;;29.60;59.30;;;;;;4991340;28;20477;-74
2022/07/09 11:55:04;;;;;;;1.53;0.87;;;29.70;56.40;;;;;;5009224;28;20415;-74
2022/07/09 11:57:32;;;;;;;3.57;0.80;;;28.50;53.60;;;;;;5008939;28;20463;-74
2022/07/09 11:59:59;;;;;;;2.17;0.90;;;28.30;55.90;;;;;;4991625;28;20433;-74
2022/07/09 12:02:36;;;;;;;2.07;0.90;;;28.50;56.90;;;;;;5008783;28;20417;-74
2022/07/09 12:05:08;;;;;;;3.90;0.83;;;28.80;55.50;;;;;;5008440;28;21233;-74
2022/07/09 12:07:35;;;;;;;4.50;1.10;;;29.00;56.70;;;;;;5008652;28;20785;-73
2022/07/09 12:10:04;;;;;;;4.90;0.90;;;29.20;58.00;;;;;;5009240;28;20418;-74
2022/07/09 12:12:31;;;;;;;2.57;0.90;;;28.80;55.30;;;;;;5008352;28;20419;-74
2022/07/09 12:14:57;;;;;;;1.77;0.87;;;28.70;56.80;;;;;;5008110;28;20431;-74
2022/07/09 12:17:27;;;;;;;4.70;1.00;;;28.80;57.50;;;;;;5008112;28;20430;-75
2022/07/09 12:19:54;;;;;;;8.10;1.10;;;29.00;58.60;;;;;;5008166;28;20474;-75
2022/07/09 12:22:20;;;;;;;2.17;1.10;;;29.10;56.70;;;;;;5008081;28;20432;-75
2022/07/09 12:24:47;;;;;;;5.50;1.83;;;29.60;59.70;;;;;;5008309;28;20913;-75
2022/07/09 12:27:13;;;;;;;4.00;1.07;;;29.80;56.80;;;;;;5008282;28;20926;-75
2022/07/09 12:29:39;;;;;;;7.40;1.40;;;29.70;56.10;;;;;;4990825;28;20439;-75
2022/07/09 12:32:05;;;;;;;1.20;1.10;;;29.90;58.10;;;;;;5008799;28;20235;-75
2022/07/09 12:34:31;;;;;;;2.23;0.90;;;30.10;60.00;;;;;;5009164;28;20589;-75
2022/07/09 12:36:57;;;;;;;2.60;0.83;;;30.20;58.90;;;;;;5009007;28;20448;-74
2022/07/09 12:39:22;;;;;;;3.00;0.93;;;30.20;60.50;;;;;;4991133;28;21046;-75
2022/07/09 12:41:48;;;;;;;12.17;3.33;;;30.10;59.00;;;;;;4991033;28;20193;-75